createdAt,value
2019-05-14T00:02:21.539Z,2.70
2019-05-14T00:04:51.228Z,2.15
2019-05-14T00:07:22.093Z,2.40
2019-05-14T00:09:51.904Z,2.27
2019-05-14T00:12:22.357Z,2.20
2019-05-14T00:14:51.460Z,2.20
2019-05-14T00:17:21.317Z,2.25
2019-05-14T00:20:06.390Z,2.60
2019-05-14T00:22:24.716Z,2.50
2019-05-14T00:24:54.059Z,3.45
2019-05-14T00:27:23.070Z,2.87
2019-05-14T00:29:51.946Z,2.60
2019-05-14T00:32:21.670Z,2.80
2019-05-14T00:34:51.575Z,2.58
2019-05-14T00:37:21.705Z,2.77
2019-05-14T00:39:52.150Z,2.58
2019-05-14T00:42:21.534Z,2.30
2019-05-14T00:44:58.511Z,2.45
2019-05-14T00:47:26.470Z,2.87
2019-05-14T00:49:54.435Z,2.10
2019-05-14T00:52:22.443Z,3.00
2019-05-14T00:54:52.243Z,2.50
2019-05-14T00:57:21.149Z,2.45
2019-05-14T00:59:49.249Z,2.30
2019-05-14T01:02:17.194Z,3.12
2019-05-14T01:04:45.092Z,2.70
2019-05-14T01:07:13.639Z,3.37
2019-05-14T01:09:42.029Z,3.12
2019-05-14T01:12:12.201Z,2.70
2019-05-14T01:14:42.132Z,3.12
2019-05-14T01:17:11.264Z,2.77
2019-05-14T01:19:42.214Z,3.22
2019-05-14T01:22:09.240Z,3.08
2019-05-14T01:24:37.290Z,2.80
2019-05-14T01:27:05.237Z,3.40
2019-05-14T01:29:33.101Z,2.75
2019-05-14T01:32:01.367Z,2.85
2019-05-14T01:34:29.370Z,2.80
2019-05-14T01:36:57.263Z,3.40
2019-05-14T01:39:25.495Z,2.65
2019-05-14T01:41:55.998Z,3.35
2019-05-14T01:44:23.650Z,3.00
2019-05-14T01:46:52.532Z,2.70
2019-05-14T01:49:22.168Z,3.10
2019-05-14T01:51:51.194Z,2.80
2019-05-14T01:54:21.076Z,3.10
2019-05-14T01:56:48.914Z,3.05
2019-05-14T01:59:16.799Z,3.20
2019-05-14T02:01:44.847Z,3.27
2019-05-14T02:04:12.812Z,3.00
2019-05-14T02:06:41.459Z,3.17
2019-05-14T02:09:11.115Z,3.22
2019-05-14T02:11:41.306Z,2.90
2019-05-14T02:14:11.426Z,3.75
2019-05-14T02:16:38.699Z,3.58
2019-05-14T02:19:06.706Z,3.10
2019-05-14T02:21:34.667Z,3.17
2019-05-14T02:24:05.397Z,3.95
2019-05-14T02:26:33.884Z,4.10
2019-05-14T02:29:02.078Z,3.40
2019-05-14T02:31:32.488Z,3.67
2019-05-14T02:34:00.479Z,3.98
2019-05-14T02:36:30.849Z,3.70
2019-05-14T02:39:00.330Z,4.00
2019-05-14T02:41:29.865Z,3.52
2019-05-14T02:43:59.303Z,3.70
2019-05-14T02:46:29.626Z,3.90
2019-05-14T02:48:59.466Z,3.30
2019-05-14T02:51:29.687Z,3.70
2019-05-14T02:53:59.110Z,3.92
2019-05-14T02:56:29.505Z,4.40
2019-05-14T02:59:00.017Z,3.75
2019-05-14T03:01:30.224Z,3.60
2019-05-14T03:03:59.627Z,4.25
2019-05-14T03:06:29.099Z,4.40
2019-05-14T03:08:56.325Z,4.12
2019-05-14T03:11:29.440Z,3.92
2019-05-14T03:13:55.379Z,4.55
2019-05-14T03:16:31.217Z,4.70
2019-05-14T03:18:53.737Z,4.40
2019-05-14T03:21:23.421Z,3.95
2019-05-14T03:23:51.332Z,4.55
2019-05-14T03:26:19.991Z,4.75
2019-05-14T03:28:49.651Z,4.87
2019-05-14T03:31:22.424Z,5.15
2019-05-14T03:33:52.384Z,4.95
2019-05-14T03:36:23.943Z,4.47
2019-05-14T03:38:49.974Z,4.95
2019-05-14T03:41:19.425Z,5.22
2019-05-14T03:43:49.312Z,4.62
2019-05-14T03:46:15.631Z,5.78
2019-05-14T03:48:43.542Z,5.90
2019-05-14T03:51:12.619Z,5.15
2019-05-14T03:53:55.252Z,5.00
2019-05-14T03:56:11.035Z,4.72
2019-05-14T03:58:39.483Z,5.22
2019-05-14T04:01:09.712Z,4.72
2019-05-14T04:03:39.825Z,5.62
2019-05-14T04:06:10.055Z,4.35
2019-05-14T04:08:41.294Z,5.03
2019-05-14T04:11:12.884Z,4.83
2019-05-14T04:13:41.548Z,5.05
2019-05-14T04:16:10.947Z,5.53
2019-05-14T04:18:40.466Z,6.80
2019-05-14T04:21:10.354Z,6.15
2019-05-14T04:23:39.590Z,5.62
2019-05-14T04:26:09.566Z,6.90
2019-05-14T04:28:39.553Z,7.75
2019-05-14T04:31:11.272Z,7.78
2019-05-14T04:33:40.685Z,7.12
2019-05-14T04:36:09.920Z,6.35
2019-05-14T04:38:40.943Z,7.75
2019-05-14T04:41:10.373Z,6.75
2019-05-14T04:43:40.016Z,6.20
2019-05-14T04:46:10.498Z,7.35
2019-05-14T04:48:43.015Z,6.50
2019-05-14T04:51:09.813Z,6.30
2019-05-14T04:53:41.348Z,6.83
2019-05-14T04:56:09.990Z,6.17
2019-05-14T04:58:40.944Z,6.60
2019-05-14T05:01:09.799Z,7.10
2019-05-14T05:03:39.961Z,6.47
2019-05-14T05:06:09.897Z,6.50
2019-05-14T05:08:39.493Z,6.35
2019-05-14T05:11:09.402Z,5.83
2019-05-14T05:13:39.295Z,6.08
2019-05-14T05:16:06.299Z,5.87
2019-05-14T05:18:35.593Z,6.58
2019-05-14T05:21:05.777Z,6.25
2019-05-14T05:23:34.327Z,6.25
2019-05-14T05:26:02.245Z,6.90
2019-05-14T05:28:30.109Z,5.72
2019-05-14T05:30:58.679Z,7.15
2019-05-14T05:33:29.266Z,6.50
2019-05-14T05:35:59.075Z,5.92
2019-05-14T05:38:29.104Z,7.35
2019-05-14T05:40:57.749Z,6.60
2019-05-14T05:43:28.390Z,6.62
2019-05-14T05:45:55.662Z,6.40
2019-05-14T05:48:23.558Z,6.40
2019-05-14T05:50:51.487Z,6.45
2019-05-14T05:53:19.479Z,5.97
2019-05-14T05:55:48.459Z,6.10
2019-05-14T05:58:19.525Z,6.10
2019-05-14T06:00:46.253Z,5.80
2019-05-14T06:03:14.187Z,5.60
2019-05-14T06:05:42.023Z,6.00
2019-05-14T06:08:09.955Z,7.55
2019-05-14T06:10:39.926Z,6.05
2019-05-14T06:13:08.865Z,6.22
2019-05-14T06:15:47.600Z,5.75
2019-05-14T06:18:17.082Z,6.25
2019-05-14T06:20:38.513Z,5.62
2019-05-14T06:23:08.277Z,6.28
2019-05-14T06:25:35.454Z,6.00
2019-05-14T06:28:03.363Z,4.80
2019-05-14T06:30:32.639Z,5.75
2019-05-14T06:33:00.447Z,5.22
2019-05-14T06:35:28.581Z,5.10
2019-05-14T06:37:58.193Z,5.65
2019-05-14T06:40:28.570Z,4.20
2019-05-14T06:42:55.703Z,4.90
2019-05-14T06:45:23.536Z,4.83
2019-05-14T06:47:51.355Z,5.58
2019-05-14T06:50:19.217Z,5.08
2019-05-14T06:52:49.241Z,5.25
2019-05-14T06:55:18.031Z,4.60
2019-05-14T06:57:48.063Z,4.65
2019-05-14T07:00:15.719Z,5.22
2019-05-14T07:02:44.300Z,5.70
2019-05-14T07:05:12.223Z,5.17
2019-05-14T07:07:40.585Z,5.30
2019-05-14T07:10:09.187Z,4.65
2019-05-14T07:12:38.789Z,5.45
2019-05-14T07:15:09.274Z,5.55
2019-05-14T07:17:38.442Z,6.90
2019-05-14T07:20:08.875Z,5.50
2019-05-14T07:22:38.712Z,5.72
2019-05-14T07:25:06.287Z,5.97
2019-05-14T07:27:34.106Z,5.17
2019-05-14T07:30:01.937Z,5.90
2019-05-14T07:32:29.762Z,5.78
2019-05-14T07:34:59.468Z,5.72
2019-05-14T07:37:28.558Z,5.78
2019-05-14T07:39:57.967Z,5.62
2019-05-14T07:42:28.708Z,5.70
2019-05-14T07:44:55.674Z,5.58
2019-05-14T07:47:23.518Z,5.47
2019-05-14T07:49:51.338Z,5.90
2019-05-14T07:52:19.912Z,5.90
2019-05-14T07:54:48.216Z,5.40
2019-05-14T07:57:16.244Z,5.62
2019-05-14T07:59:44.047Z,5.65
2019-05-14T08:02:12.952Z,5.90
2019-05-14T08:04:40.969Z,5.55
2019-05-14T08:07:09.180Z,5.40
2019-05-14T08:09:38.948Z,5.10
2019-05-14T08:12:09.204Z,5.85
2019-05-14T08:14:45.231Z,5.55
2019-05-14T08:17:08.465Z,5.92
2019-05-14T08:19:35.809Z,5.58
2019-05-14T08:22:03.810Z,5.80
2019-05-14T08:24:31.630Z,5.70
2019-05-14T08:26:59.454Z,4.65
2019-05-14T08:29:28.681Z,6.33
2019-05-14T08:31:58.261Z,6.00
2019-05-14T08:34:28.622Z,5.47
2019-05-14T08:36:55.825Z,5.40
2019-05-14T08:39:23.643Z,4.42
2019-05-14T08:41:59.574Z,5.30
2019-05-14T08:44:21.042Z,5.85
2019-05-14T08:46:48.864Z,6.85
2019-05-14T08:49:18.425Z,5.80
2019-05-14T08:51:49.175Z,5.55
2019-05-14T08:54:16.008Z,5.25
2019-05-14T08:56:43.855Z,5.45
2019-05-14T08:59:11.683Z,4.90
2019-05-14T09:01:44.143Z,4.37
2019-05-14T09:04:11.308Z,4.30
2019-05-14T09:06:39.215Z,4.55
2019-05-14T09:09:09.241Z,4.90
2019-05-14T09:11:44.472Z,4.62
2019-05-14T09:14:10.925Z,3.45
2019-05-14T09:16:42.735Z,3.92
2019-05-14T09:19:08.634Z,4.25
2019-05-14T09:21:39.496Z,5.37
2019-05-14T09:24:05.723Z,4.08
2019-05-14T09:26:33.546Z,3.67
2019-05-14T09:29:17.921Z,3.30
2019-05-14T09:31:31.071Z,3.40
2019-05-14T09:33:59.007Z,3.08
2019-05-14T09:36:28.940Z,3.08
2019-05-14T09:38:58.358Z,3.10
2019-05-14T09:41:28.624Z,2.45
2019-05-14T09:43:55.707Z,2.90
2019-05-14T09:46:23.600Z,3.50
2019-05-14T09:48:51.440Z,3.05
2019-05-14T09:51:19.343Z,3.37
2019-05-14T09:53:48.954Z,2.98
2019-05-14T09:56:18.601Z,3.67
2019-05-14T09:58:49.234Z,3.80
2019-05-14T10:01:19.129Z,3.25
2019-05-14T10:03:46.130Z,2.90
2019-05-14T10:06:14.214Z,2.83
2019-05-14T10:08:42.074Z,2.70
2019-05-14T10:11:10.099Z,3.15
2019-05-14T10:13:39.365Z,3.55
2019-05-14T10:16:09.463Z,3.10
2019-05-14T10:18:38.063Z,2.80
2019-05-14T10:21:08.378Z,3.10
2019-05-14T10:23:35.642Z,3.05
2019-05-14T10:26:03.618Z,2.75
2019-05-14T10:28:31.467Z,3.50
2019-05-14T10:31:00.665Z,3.25
2019-05-14T10:33:29.014Z,2.98
2019-05-14T10:35:58.848Z,2.98
2019-05-14T10:38:29.254Z,3.37
2019-05-14T10:40:58.412Z,3.20
2019-05-14T10:43:28.761Z,2.45
2019-05-14T10:45:58.068Z,2.30
2019-05-14T10:48:25.675Z,2.30
2019-05-14T10:50:59.897Z,2.80
2019-05-14T10:53:24.224Z,2.45
2019-05-14T10:55:52.132Z,2.30
2019-05-14T10:58:20.036Z,2.37
2019-05-14T11:00:49.529Z,2.47
2019-05-14T11:03:18.578Z,2.75
2019-05-14T11:05:48.204Z,2.58
2019-05-14T11:08:18.709Z,2.70
2019-05-14T11:10:45.803Z,2.55
2019-05-14T11:13:13.761Z,2.70
2019-05-14T11:15:41.620Z,2.35
2019-05-14T11:18:09.599Z,2.83
2019-05-14T11:20:41.706Z,2.52
2019-05-14T11:23:08.912Z,2.50
2019-05-14T11:25:38.376Z,2.98
2019-05-14T11:28:06.451Z,3.00
2019-05-14T11:30:34.330Z,2.80
2019-05-14T11:33:02.236Z,2.80
2019-05-14T11:35:30.098Z,2.95
2019-05-14T11:37:58.892Z,3.35
2019-05-14T11:40:29.129Z,3.10
2019-05-14T11:42:58.978Z,2.40
2019-05-14T11:45:26.540Z,3.52
2019-05-14T11:47:54.421Z,3.80
2019-05-14T11:50:22.317Z,3.05
2019-05-14T11:52:50.134Z,2.55
2019-05-14T11:55:18.887Z,3.05
2019-05-14T11:57:48.525Z,2.65
2019-05-14T12:00:19.484Z,2.75
2019-05-14T12:02:46.770Z,3.02
2019-05-14T12:05:14.942Z,2.80
2019-05-14T12:07:42.772Z,2.20
2019-05-14T12:10:10.747Z,2.62
2019-05-14T12:12:38.615Z,2.10
2019-05-14T12:15:08.727Z,2.52
2019-05-14T12:17:38.997Z,2.17
2019-05-14T12:20:05.906Z,2.80
2019-05-14T12:22:33.750Z,2.60
2019-05-14T12:25:01.622Z,2.65
2019-05-14T12:27:29.425Z,2.55
2019-05-14T12:29:59.893Z,2.30
2019-05-14T12:32:29.383Z,2.17
2019-05-14T12:34:59.200Z,2.20
2019-05-14T12:37:25.923Z,2.10
2019-05-14T12:39:53.778Z,2.42
2019-05-14T12:42:21.699Z,1.95
2019-05-14T12:44:49.609Z,2.15
2019-05-14T12:47:18.807Z,2.67
2019-05-14T12:49:48.341Z,2.60
2019-05-14T12:52:24.772Z,1.80
2019-05-14T12:54:45.955Z,2.10
2019-05-14T12:57:13.826Z,2.35
2019-05-14T12:59:41.631Z,2.00
2019-05-14T13:02:09.882Z,3.60
2019-05-14T13:04:37.906Z,2.42
2019-05-14T13:07:05.766Z,2.20
2019-05-14T13:09:33.579Z,2.50
2019-05-14T13:12:01.458Z,2.40
2019-05-14T13:14:29.307Z,1.95
2019-05-14T13:16:59.586Z,2.35
2019-05-14T13:19:28.490Z,2.15
2019-05-14T13:22:09.974Z,2.35
2019-05-14T13:24:28.639Z,2.25
2019-05-14T13:26:58.612Z,2.22
2019-05-14T13:29:25.381Z,2.92
2019-05-14T13:31:53.310Z,1.75
2019-05-14T13:34:21.148Z,1.95
2019-05-14T13:36:49.011Z,2.00
2019-05-14T13:39:19.211Z,2.22
2019-05-14T13:41:48.673Z,1.90
2019-05-14T13:44:24.297Z,2.05
2019-05-14T13:46:48.442Z,2.00
2019-05-14T13:49:15.259Z,1.95
2019-05-14T13:51:43.091Z,1.95
2019-05-14T13:54:10.972Z,2.10
2019-05-14T13:56:39.109Z,2.10
2019-05-14T13:59:09.164Z,2.20
2019-05-14T14:01:36.732Z,2.00
2019-05-14T14:04:11.471Z,2.20
2019-05-14T14:06:34.323Z,2.12
2019-05-14T14:09:02.218Z,1.70
2019-05-14T14:11:31.890Z,2.10
2019-05-14T14:13:59.759Z,2.37
2019-05-14T14:16:30.799Z,1.80
2019-05-14T14:19:03.243Z,1.90
2019-05-14T14:21:30.153Z,1.75
2019-05-14T14:23:59.338Z,2.02
2019-05-14T14:26:29.131Z,1.87
2019-05-14T14:28:59.706Z,1.60
2019-05-14T14:31:28.442Z,2.00
2019-05-14T14:33:56.158Z,2.10
2019-05-14T14:36:23.982Z,2.35
2019-05-14T14:38:51.873Z,1.90
2019-05-14T14:41:19.860Z,2.00
2019-05-14T14:43:53.441Z,1.82
2019-05-14T14:46:19.636Z,1.87
2019-05-14T14:48:49.287Z,2.47
2019-05-14T14:51:18.963Z,1.50
2019-05-14T14:53:58.446Z,1.92
2019-05-14T14:56:15.750Z,1.98
2019-05-14T14:58:43.645Z,1.60
2019-05-14T15:01:11.494Z,1.87
2019-05-14T15:03:39.372Z,1.50
2019-05-14T15:06:09.647Z,1.60
2019-05-14T15:08:38.976Z,1.67
2019-05-14T15:11:08.572Z,2.40
2019-05-14T15:13:35.961Z,1.70
2019-05-14T15:16:03.842Z,1.90
2019-05-14T15:18:31.718Z,1.87
2019-05-14T15:20:59.627Z,1.80
2019-05-14T15:23:28.633Z,1.67
2019-05-14T15:25:58.882Z,1.40
2019-05-14T15:28:27.501Z,1.72
2019-05-14T15:30:59.292Z,2.02
2019-05-14T15:33:26.085Z,1.80
2019-05-14T15:35:58.252Z,2.20
2019-05-14T15:38:30.335Z,1.57
2019-05-14T15:40:56.100Z,2.10
2019-05-14T15:43:23.985Z,1.67
2019-05-14T15:45:54.315Z,1.30
2019-05-14T15:48:24.196Z,1.55
2019-05-14T15:50:52.187Z,1.55
2019-05-14T15:53:20.119Z,1.60
2019-05-14T15:55:49.084Z,1.50
2019-05-14T15:58:21.339Z,1.40
2019-05-14T16:00:50.241Z,2.08
2019-05-14T16:03:18.816Z,1.95
2019-05-14T16:05:48.820Z,1.60
2019-05-14T16:08:18.862Z,1.70
2019-05-14T16:10:46.675Z,1.35
2019-05-14T16:13:15.621Z,1.30
2019-05-14T16:15:44.671Z,1.47
2019-05-14T16:18:18.647Z,1.45
2019-05-14T16:20:44.201Z,1.35
2019-05-14T16:23:15.219Z,1.32
2019-05-14T16:25:43.207Z,1.40
2019-05-14T16:28:11.104Z,1.40
2019-05-14T16:30:44.207Z,1.40
2019-05-14T16:33:12.171Z,1.80
2019-05-14T16:35:41.909Z,1.45
2019-05-14T16:38:09.876Z,1.67
2019-05-14T16:40:39.595Z,1.50
2019-05-14T16:43:07.431Z,2.08
2019-05-14T16:45:39.561Z,1.50
2019-05-14T16:48:10.958Z,1.75
2019-05-14T16:50:37.230Z,1.42
2019-05-14T16:53:05.091Z,1.67
2019-05-14T16:55:32.971Z,2.60
2019-05-14T16:58:01.880Z,1.80
2019-05-14T17:00:30.380Z,1.30
2019-05-14T17:03:00.700Z,1.50
2019-05-14T17:05:29.861Z,1.50
2019-05-14T17:07:58.822Z,1.52
2019-05-14T17:10:28.661Z,1.85
2019-05-14T17:12:58.754Z,2.15
2019-05-14T17:15:29.444Z,1.60
2019-05-14T17:17:59.635Z,1.55
2019-05-14T17:20:28.113Z,1.40
2019-05-14T17:22:55.958Z,1.50
2019-05-14T17:25:27.109Z,1.50
2019-05-14T17:27:53.639Z,1.50
2019-05-14T17:30:21.815Z,1.30
2019-05-14T17:32:49.697Z,1.32
2019-05-14T17:35:20.079Z,1.20
2019-05-14T17:37:50.388Z,1.62
2019-05-14T17:40:25.647Z,1.50
2019-05-14T17:42:53.637Z,1.50
2019-05-14T17:45:24.751Z,1.40
2019-05-14T17:47:53.742Z,1.45
2019-05-14T17:50:21.780Z,1.65
2019-05-14T17:52:56.249Z,1.60
2019-05-14T17:55:19.821Z,1.45
2019-05-14T17:57:56.798Z,1.57
2019-05-14T18:00:20.028Z,1.45
2019-05-14T18:02:49.051Z,1.30
2019-05-14T18:05:18.814Z,1.30
2019-05-14T18:07:48.549Z,1.20
2019-05-14T18:10:19.459Z,1.25
2019-05-14T18:12:50.186Z,1.60
2019-05-14T18:15:20.919Z,1.70
2019-05-14T18:17:54.406Z,1.20
2019-05-14T18:20:39.171Z,1.40
2019-05-14T18:23:14.342Z,1.55
2019-05-14T18:26:08.708Z,1.50
2019-05-14T18:28:34.657Z,1.20
2019-05-14T18:31:02.825Z,1.50
2019-05-14T18:33:31.449Z,1.40
2019-05-14T18:36:01.238Z,1.30
2019-05-14T18:38:29.228Z,1.40
2019-05-14T18:40:58.645Z,2.00
2019-05-14T18:43:28.905Z,1.67
2019-05-14T18:45:58.693Z,1.55
2019-05-14T18:48:29.023Z,1.60
2019-05-14T18:50:59.236Z,1.42
2019-05-14T18:53:28.123Z,1.87
2019-05-14T18:55:56.529Z,2.33
2019-05-14T18:58:26.133Z,1.90
2019-05-14T19:00:54.429Z,1.60
2019-05-14T19:03:28.562Z,1.67
2019-05-14T19:05:58.559Z,1.42
2019-05-14T19:08:28.622Z,1.40
2019-05-14T19:10:56.233Z,1.60
2019-05-14T19:13:28.013Z,1.67
2019-05-14T19:15:55.528Z,1.37
2019-05-14T19:18:23.614Z,2.50
2019-05-14T19:20:51.612Z,2.47
2019-05-14T19:23:20.243Z,1.50
2019-05-14T19:25:50.384Z,1.98
2019-05-14T19:28:18.907Z,1.65
2019-05-14T19:30:48.784Z,2.85
2019-05-14T19:33:20.534Z,1.62
2019-05-14T19:35:48.474Z,1.40
2019-05-14T19:38:17.925Z,1.50
2019-05-14T19:40:48.341Z,1.70
2019-05-14T19:43:18.931Z,1.50
2019-05-14T19:45:48.736Z,1.70
2019-05-14T19:48:18.751Z,1.80
2019-05-14T19:50:48.859Z,1.77
2019-05-14T19:53:16.734Z,1.60
2019-05-14T19:55:45.395Z,1.50
2019-05-14T20:01:19.179Z,2.17
2019-05-14T20:03:48.375Z,1.85
2019-05-14T20:06:18.508Z,1.50
2019-05-14T20:08:48.079Z,2.05
2019-05-14T20:11:15.697Z,1.80
2019-05-14T20:13:44.244Z,1.70
2019-05-14T20:16:12.407Z,1.77
2019-05-14T20:18:40.446Z,1.65
2019-05-14T20:21:08.795Z,2.35
2019-05-14T20:23:38.675Z,1.70
2019-05-14T20:26:08.277Z,1.90
2019-05-14T20:28:38.805Z,2.00
2019-05-14T20:31:09.961Z,1.87
2019-05-14T20:33:40.002Z,2.12
2019-05-14T20:36:08.390Z,2.05
2019-05-14T20:38:38.606Z,2.55
2019-05-14T20:41:06.138Z,1.90
2019-05-14T20:43:34.091Z,2.10
2019-05-14T20:46:02.965Z,1.80
2019-05-14T20:48:32.319Z,2.08
2019-05-14T20:51:03.565Z,1.70
2019-05-14T20:53:32.209Z,2.05
2019-05-14T20:56:00.969Z,1.70
2019-05-14T20:58:29.190Z,2.20
2019-05-14T21:00:57.213Z,1.90
2019-05-14T21:03:26.225Z,1.57
2019-05-14T21:05:55.397Z,1.72
2019-05-14T21:08:23.959Z,1.90
2019-05-14T21:10:53.014Z,2.02
2019-05-14T21:13:21.551Z,2.00
2019-05-14T21:15:51.137Z,2.00
2019-05-14T21:18:34.208Z,2.15
2019-05-14T21:20:49.627Z,2.30
2019-05-14T21:23:18.331Z,2.10
2019-05-14T21:25:48.361Z,2.42
2019-05-14T21:28:16.009Z,2.22
2019-05-14T21:30:45.147Z,2.10
2019-05-14T21:33:13.328Z,2.40
2019-05-14T21:35:43.738Z,2.47
2019-05-14T21:38:11.617Z,2.20
2019-05-14T21:40:42.014Z,2.55
2019-05-14T21:43:11.593Z,2.40
2019-05-14T21:45:40.344Z,2.50
2019-05-14T21:48:08.779Z,2.75
2019-05-14T21:50:38.817Z,2.50
2019-05-14T21:53:08.511Z,2.60
2019-05-14T21:55:38.769Z,2.35
2019-05-14T21:58:09.092Z,2.50
2019-05-14T22:00:42.452Z,2.37
2019-05-14T22:03:10.995Z,2.30
2019-05-14T22:05:39.409Z,2.70
2019-05-14T22:08:09.483Z,2.33
2019-05-14T22:10:39.566Z,2.90
2019-05-14T22:13:07.054Z,2.72
2019-05-14T22:15:38.640Z,2.87
2019-05-14T22:18:16.534Z,2.65
2019-05-14T22:20:35.711Z,2.98
2019-05-14T22:23:04.964Z,2.62
2019-05-14T22:25:35.737Z,2.22
2019-05-14T22:28:12.343Z,2.30
2019-05-14T22:30:38.612Z,2.60
2019-05-14T22:33:08.198Z,2.85
2019-05-14T22:35:39.720Z,2.62
2019-05-14T22:38:07.983Z,2.83
2019-05-14T22:40:35.971Z,1.90
2019-05-14T22:43:03.898Z,2.70
2019-05-14T22:45:31.775Z,2.50
2019-05-14T22:47:59.758Z,2.30
2019-05-14T22:50:29.384Z,2.27
2019-05-14T22:52:58.430Z,2.33
2019-05-14T22:55:30.954Z,2.70
2019-05-14T22:57:59.267Z,2.52
2019-05-14T23:00:28.688Z,2.30
2019-05-14T23:02:59.022Z,2.60
2019-05-14T23:05:29.041Z,2.20
2019-05-14T23:07:58.262Z,2.37
2019-05-14T23:10:26.260Z,2.30
2019-05-14T23:12:54.181Z,2.30
2019-05-14T23:15:22.124Z,2.05
2019-05-14T23:17:50.155Z,2.50
2019-05-14T23:20:19.629Z,2.60
2019-05-14T23:22:49.218Z,2.58
2019-05-14T23:25:18.457Z,2.45
2019-05-14T23:27:48.144Z,2.60
2019-05-14T23:30:19.569Z,2.92
2019-05-14T23:32:49.060Z,2.60
2019-05-14T23:35:18.864Z,2.30
2019-05-14T23:37:48.931Z,2.25
2019-05-14T23:40:17.360Z,2.00
2019-05-14T23:42:45.225Z,2.30
2019-05-14T23:45:13.178Z,2.62
2019-05-14T23:47:41.123Z,2.47
2019-05-14T23:50:09.088Z,2.20
2019-05-14T23:52:38.732Z,2.70
2019-05-14T23:55:08.590Z,2.30
2019-05-14T23:57:36.797Z,2.75
